createdAt,value
2019-04-11T00:00:33.253Z,61675.48
2019-04-11T00:03:00.602Z,61672.25
2019-04-11T00:05:28.596Z,61663.80
2019-04-11T00:07:57.211Z,61661.49
2019-04-11T00:12:52.091Z,61657.94
2019-04-11T00:15:18.334Z,61650.19
2019-04-11T00:17:45.966Z,61646.29
2019-04-11T00:20:13.106Z,61641.98
2019-04-11T00:22:39.500Z,61630.65
2019-04-11T00:25:05.822Z,61624.13
2019-04-11T00:27:32.969Z,61623.21
2019-04-11T00:30:00.255Z,61628.11
2019-04-11T00:32:27.554Z,61555.10
2019-04-11T00:34:55.315Z,61618.41
2019-04-11T00:37:23.191Z,61617.73
2019-04-11T00:39:52.022Z,61617.54
2019-04-11T00:42:19.138Z,61618.62
2019-04-11T00:44:45.416Z,61617.94
2019-04-11T00:47:11.679Z,61611.09
2019-04-11T00:49:38.764Z,61610.01
2019-04-11T00:52:06.566Z,61605.70
2019-04-11T00:54:33.150Z,61599.25
2019-04-11T00:57:01.317Z,61592.29
2019-04-11T00:59:27.593Z,61583.84
2019-04-11T01:01:53.841Z,61585.16
2019-04-11T01:04:20.116Z,61578.71
2019-04-11T01:06:46.717Z,61567.37
2019-04-11T01:09:14.536Z,61562.72
2019-04-11T01:11:40.798Z,61557.36
2019-04-11T01:14:07.861Z,61551.10
2019-04-11T01:19:33.341Z,61537.13
2019-04-11T01:21:59.625Z,61534.31
2019-04-11T01:24:26.319Z,61531.96
2019-04-11T01:26:53.802Z,61525.12
2019-04-11T01:29:20.897Z,61524.43
2019-04-11T01:34:35.032Z,61520.29
2019-04-11T01:37:01.698Z,61520.68
2019-04-11T01:39:49.679Z,61515.27
2019-04-11T01:42:17.449Z,61512.96
2019-04-11T01:44:45.843Z,61517.64
2019-04-11T01:47:46.824Z,61516.23
2019-04-11T01:53:00.876Z,61514.42
2019-04-11T01:55:28.194Z,61513.01
2019-04-11T01:57:55.332Z,61503.09
2019-04-11T02:00:42.042Z,61505.63
2019-04-11T02:03:28.411Z,61501.49
2019-04-11T02:05:54.765Z,61500.60
2019-04-11T02:08:21.044Z,61498.95
2019-04-11T02:10:47.297Z,61498.95
2019-04-11T02:13:13.558Z,61500.08
2019-04-11T02:15:40.742Z,61499.05
2019-04-11T02:18:08.074Z,61493.62
2019-04-11T02:20:34.306Z,61484.45
2019-04-11T02:23:21.450Z,61481.28
2019-04-11T02:26:07.527Z,61480.20
2019-04-11T02:28:34.915Z,61475.57
2019-04-11T02:31:04.579Z,61472.49
2019-04-11T02:33:30.725Z,61477.97
2019-04-11T02:35:57.281Z,61481.77
2019-04-11T02:38:24.547Z,61473.76
2019-04-11T02:40:52.561Z,61475.03
2019-04-11T02:43:20.669Z,61474.11
2019-04-11T02:46:01.090Z,61480.30
2019-04-11T02:48:18.328Z,61467.60
2019-04-11T02:50:45.906Z,61472.35
2019-04-11T02:53:14.737Z,61471.86
2019-04-11T02:55:41.819Z,61464.10
2019-04-11T02:58:10.400Z,61459.61
2019-04-11T03:00:37.933Z,61454.05
2019-04-11T03:03:05.685Z,61451.21
2019-04-11T03:05:34.526Z,61450.34
2019-04-11T03:10:33.613Z,61439.02
2019-04-11T03:13:02.783Z,61455.13
2019-04-11T03:15:43.176Z,61369.93
2019-04-11T03:18:02.033Z,61432.39
2019-04-11T03:20:33.699Z,61438.59
2019-04-11T03:22:59.368Z,61434.57
2019-04-11T03:28:21.028Z,61432.98
2019-04-11T03:31:03.843Z,61438.33
2019-04-11T03:38:33.177Z,61446.58
2019-04-11T03:40:57.667Z,61443.31
2019-04-11T03:43:16.370Z,61461.71
2019-04-11T03:46:16.071Z,61455.32
2019-04-11T03:48:36.890Z,61458.04
2019-04-11T03:50:54.530Z,61452.05
2019-04-11T03:53:20.057Z,61452.97
2019-04-11T03:55:47.571Z,61454.45
2019-04-11T03:58:15.496Z,61457.36
2019-04-11T04:00:44.293Z,61461.71
2019-04-11T04:03:11.286Z,61453.51
2019-04-11T04:05:39.717Z,61457.45
2019-04-11T04:08:08.766Z,61457.08
2019-04-11T04:17:11.043Z,61480.55
2019-04-11T04:24:47.684Z,61511.34
2019-04-11T04:27:36.035Z,61519.36
2019-04-11T04:30:27.675Z,61530.50
2019-04-11T04:32:54.555Z,61543.57
2019-04-11T04:35:23.580Z,61558.63
2019-04-11T04:37:51.679Z,61566.10
2019-04-11T04:40:36.036Z,61583.54
2019-04-11T04:43:08.184Z,61603.12
2019-04-11T04:45:55.166Z,61626.25
2019-04-11T04:48:07.834Z,61647.37
2019-04-11T04:50:31.115Z,61671.38
2019-04-11T04:52:58.271Z,61703.62
2019-04-11T04:55:26.410Z,61746.67
2019-04-11T05:00:45.637Z,61836.79
2019-04-11T05:05:44.309Z,61943.80
2019-04-11T05:08:11.226Z,61992.24
2019-04-11T05:10:38.152Z,62025.27
2019-04-11T05:13:05.843Z,62080.09
2019-04-11T05:15:34.550Z,62122.80
2019-04-11T05:18:02.139Z,62164.18
2019-04-11T05:20:28.411Z,62188.58
2019-04-11T05:25:52.824Z,62242.09
2019-04-11T05:28:41.554Z,62291.23
2019-04-11T05:31:08.358Z,62299.02
2019-04-11T05:36:28.327Z,62333.16
2019-04-11T05:39:20.021Z,62370.74
2019-04-11T05:41:48.702Z,62380.45
2019-04-11T05:44:30.571Z,62423.35
2019-04-11T05:47:27.636Z,62422.19
2019-04-11T05:52:44.077Z,62531.13
2019-04-11T06:00:55.776Z,62635.64
2019-04-11T06:03:23.933Z,62674.98
2019-04-11T06:06:10.913Z,62673.29
2019-04-11T06:08:37.842Z,62717.68
2019-04-11T06:16:36.917Z,62794.49
2019-04-11T06:19:15.037Z,62834.45
2019-04-11T06:22:01.256Z,62816.95
2019-04-11T06:24:48.202Z,62773.59
2019-04-11T06:30:44.377Z,62864.34
2019-04-11T06:33:30.749Z,62889.38
2019-04-11T06:36:17.977Z,62795.99
2019-04-11T06:39:05.157Z,62743.80
2019-04-11T06:41:51.374Z,62717.20
2019-04-11T06:44:37.710Z,62727.68
2019-04-11T06:47:24.967Z,62683.82
2019-04-11T06:50:11.396Z,62718.17
2019-04-11T07:03:22.279Z,62967.35
2019-04-11T07:05:42.699Z,62977.79
2019-04-11T07:08:09.915Z,63022.86
2019-04-11T07:13:43.581Z,62977.04
2019-04-11T07:19:15.677Z,63078.66
2019-04-11T07:21:42.132Z,63076.55
2019-04-11T07:24:28.288Z,63006.15
2019-04-11T07:30:03.134Z,63121.36
2019-04-11T07:32:29.909Z,63113.14
2019-04-11T07:35:17.446Z,63051.91
2019-04-11T07:37:44.732Z,63055.14
2019-04-11T07:43:12.818Z,62914.20
2019-04-11T07:56:16.486Z,62817.35
2019-04-11T08:01:59.375Z,62863.94
2019-04-11T08:05:06.929Z,62891.45
2019-04-11T08:07:52.956Z,62893.42
2019-04-11T08:10:38.982Z,62887.29
2019-04-11T08:13:26.239Z,62904.94
2019-04-11T08:19:03.626Z,62986.38
2019-04-11T08:21:50.414Z,62997.41
2019-04-11T08:24:38.122Z,62802.59
2019-04-11T08:27:25.246Z,62954.67
2019-04-11T08:32:46.393Z,62970.70
2019-04-11T08:35:34.507Z,62960.20
2019-04-11T08:43:43.367Z,62882.52
2019-04-11T08:49:26.648Z,62936.01
2019-04-11T08:51:55.783Z,62962.94
2019-04-11T08:57:10.334Z,62897.43
2019-04-11T08:59:56.331Z,62919.64
2019-04-11T09:05:18.803Z,62954.67
2019-04-11T09:08:03.952Z,62938.53
2019-04-11T09:10:50.738Z,62964.01
2019-04-11T09:13:37.664Z,62920.07
2019-04-11T09:16:23.766Z,62943.02
2019-04-11T09:18:52.450Z,62993.74
2019-04-11T09:21:40.403Z,63013.91
2019-04-11T09:27:22.716Z,62938.53
2019-04-11T09:30:12.770Z,62961.21
2019-04-11T09:38:20.284Z,63009.85
2019-04-11T09:41:06.285Z,63024.16
2019-04-11T09:46:26.301Z,63041.50
2019-04-11T09:52:00.430Z,63037.45
2019-04-11T09:54:46.525Z,63051.56
2019-04-11T09:57:32.562Z,63078.60
2019-04-11T10:00:18.810Z,63138.08
2019-04-11T10:03:04.808Z,63089.99
2019-04-11T10:05:51.635Z,63087.00
2019-04-11T10:11:26.151Z,63037.37
2019-04-11T10:17:00.258Z,63067.75
2019-04-11T10:22:34.150Z,63103.55
2019-04-11T10:25:21.209Z,63113.14
2019-04-11T10:28:07.279Z,63122.78
2019-04-11T10:30:53.706Z,63137.18
2019-04-11T10:33:39.798Z,63147.23
2019-04-11T10:41:40.054Z,63141.76
2019-04-11T10:44:07.576Z,63123.41
2019-04-11T10:52:22.580Z,63192.93
2019-04-11T10:55:09.424Z,63189.10
2019-04-11T10:57:56.173Z,63176.60
2019-04-11T11:00:43.179Z,63229.97
2019-04-11T11:03:11.742Z,63185.60
2019-04-11T11:05:57.779Z,63143.33
2019-04-11T11:08:43.975Z,63178.17
2019-04-11T11:11:30.463Z,63173.79
2019-04-11T11:14:16.503Z,63157.73
2019-04-11T11:17:02.503Z,63162.74
2019-04-11T11:24:57.988Z,63255.91
2019-04-11T11:30:18.764Z,63205.84
2019-04-11T11:32:45.376Z,63193.89
2019-04-11T11:35:34.944Z,63259.82
2019-04-11T11:40:54.229Z,63272.41
2019-04-11T11:43:41.240Z,63194.47
2019-04-11T11:46:30.115Z,63081.47
2019-04-11T11:51:49.868Z,63237.54
2019-04-11T11:56:56.163Z,63229.77
2019-04-11T11:59:42.865Z,63176.87
2019-04-11T12:02:28.946Z,63226.61
2019-04-11T12:05:16.789Z,63212.74
2019-04-11T12:08:02.937Z,63227.91
2019-04-11T12:13:24.207Z,63261.82
2019-04-11T12:16:10.244Z,63226.48
2019-04-11T12:21:48.560Z,63180.06
2019-04-11T12:27:40.008Z,63152.49
2019-04-11T12:30:30.857Z,63177.42
2019-04-11T12:33:13.027Z,63205.61
2019-04-11T12:38:46.632Z,63259.07
2019-04-11T12:41:32.771Z,63236.12
2019-04-11T12:44:19.066Z,63210.33
2019-04-11T12:47:07.600Z,63223.96
2019-04-11T12:49:53.520Z,63192.38
2019-04-11T12:52:39.620Z,63174.89
2019-04-11T12:55:48.389Z,63186.29
2019-04-11T12:58:35.939Z,63139.71
2019-04-11T13:01:22.141Z,63145.08
2019-04-11T13:04:08.148Z,63157.27
2019-04-11T13:06:54.154Z,63156.94
2019-04-11T13:09:40.162Z,62967.75
2019-04-11T13:12:26.163Z,63104.65
2019-04-11T13:15:12.160Z,63087.14
2019-04-11T13:17:58.165Z,63074.25
2019-04-11T13:23:02.886Z,63077.10
2019-04-11T13:25:48.899Z,63050.01
2019-04-11T13:28:15.137Z,63032.55
2019-04-11T13:31:01.441Z,62949.43
2019-04-11T13:33:27.696Z,63020.54
2019-04-11T13:36:13.752Z,63013.65
2019-04-11T13:38:40.045Z,63022.51
2019-04-11T13:46:33.857Z,63038.67
2019-04-11T13:52:07.517Z,63062.35
2019-04-11T13:54:53.539Z,63038.67
2019-04-11T13:57:39.547Z,63040.40
2019-04-11T14:03:20.916Z,63044.02
2019-04-11T14:08:54.484Z,63071.02
2019-04-11T14:17:12.040Z,63045.56
2019-04-11T14:19:58.187Z,63058.21
2019-04-11T14:22:44.199Z,63066.52
2019-04-11T14:25:30.216Z,63087.81
2019-04-11T14:31:22.270Z,63105.16
2019-04-11T14:36:42.540Z,63090.42
2019-04-11T14:42:42.155Z,63065.97
2019-04-11T14:48:13.729Z,63051.98
2019-04-11T14:50:59.729Z,63003.21
2019-04-11T14:53:46.641Z,62993.52
2019-04-11T14:59:23.954Z,62989.92
2019-04-11T15:04:56.324Z,62961.41
2019-04-11T15:07:22.680Z,62966.41
2019-04-11T15:10:08.720Z,62965.19
2019-04-11T15:15:28.819Z,62921.96
2019-04-11T15:20:54.875Z,62909.33
2019-04-11T15:26:10.652Z,62910.86
2019-04-11T15:29:00.286Z,62909.16
2019-04-11T15:31:46.271Z,62893.27
2019-04-11T15:34:32.296Z,62893.62
2019-04-11T15:37:18.313Z,62883.14
2019-04-11T15:40:05.161Z,62875.29
2019-04-11T15:42:51.165Z,62868.55
2019-04-11T15:45:37.471Z,62864.19
2019-04-11T15:51:14.148Z,62851.12
2019-04-11T16:02:10.815Z,62841.93
2019-04-11T16:04:57.046Z,62833.70
2019-04-11T16:12:51.273Z,62794.49
2019-04-11T16:15:37.271Z,62786.32
2019-04-11T16:18:23.333Z,62780.07
2019-04-11T16:23:51.308Z,62764.74
2019-04-11T16:29:27.531Z,62757.89
2019-04-11T16:35:01.598Z,62740.61
2019-04-11T16:37:28.553Z,62728.83
2019-04-11T16:40:15.381Z,62715.16
2019-04-11T16:45:49.313Z,62706.87
2019-04-11T16:48:15.569Z,62705.64
2019-04-11T16:50:41.830Z,62691.98
2019-04-11T16:53:10.585Z,62688.05
2019-04-11T16:55:36.942Z,62686.28
2019-04-11T16:58:04.617Z,62680.63
2019-04-11T17:00:31.060Z,62675.20
2019-04-11T17:02:57.620Z,62667.91
2019-04-11T17:05:24.023Z,62656.51
2019-04-11T17:08:12.901Z,62642.50
2019-04-11T17:10:59.236Z,62631.29
2019-04-11T17:13:47.032Z,62619.34
2019-04-11T17:19:08.422Z,62588.96
2019-04-11T17:21:42.993Z,62581.29
2019-04-11T17:24:03.248Z,62568.26
2019-04-11T17:26:29.509Z,62553.95
2019-04-11T17:28:56.042Z,62542.86
2019-04-11T17:34:12.358Z,62521.16
2019-04-11T17:36:38.610Z,62506.29
2019-04-11T17:39:26.431Z,62497.33
2019-04-11T17:41:52.691Z,62491.37
2019-04-11T17:44:19.154Z,62480.10
2019-04-11T17:46:45.415Z,62474.01
2019-04-11T17:49:11.660Z,62462.41
2019-04-11T17:54:44.583Z,62438.00
2019-04-11T17:57:10.825Z,62424.77
2019-04-11T17:59:37.081Z,62407.55
2019-04-11T18:04:50.950Z,62388.78
2019-04-11T18:07:17.762Z,62378.68
2019-04-11T18:12:18.211Z,62356.86
2019-04-11T18:14:44.490Z,62349.27
2019-04-11T18:17:10.760Z,62336.73
2019-04-11T18:19:37.013Z,62325.96
2019-04-11T18:30:54.050Z,62277.15
2019-04-11T18:33:20.247Z,62264.03
2019-04-11T18:36:06.362Z,62249.41
2019-04-11T18:38:32.743Z,62237.50
2019-04-11T18:40:59.000Z,62227.34
2019-04-11T18:43:25.583Z,62221.40
2019-04-11T18:45:53.415Z,62218.54
2019-04-11T18:48:19.657Z,62207.46
2019-04-11T18:50:45.944Z,62198.79
2019-04-11T18:53:12.183Z,62196.76
2019-04-11T18:55:38.458Z,62191.36
2019-04-11T18:58:04.972Z,62182.83
2019-04-11T19:00:31.275Z,62174.86
2019-04-11T19:02:57.527Z,62168.92
2019-04-11T19:05:28.786Z,62162.41
2019-04-11T19:07:51.946Z,62157.95
2019-04-11T19:10:18.317Z,62150.37
2019-04-11T19:12:46.416Z,62144.62
2019-04-11T19:18:18.658Z,62126.99
2019-04-11T19:20:44.982Z,62116.18
2019-04-11T19:23:11.413Z,62104.63
2019-04-11T19:25:40.034Z,62089.43
2019-04-11T19:28:05.899Z,62082.73
2019-04-11T19:30:32.162Z,62074.64
2019-04-11T19:32:58.954Z,62070.18
2019-04-11T19:35:25.248Z,62069.70
2019-04-11T19:37:51.515Z,62057.68
2019-04-11T19:40:17.897Z,62058.82
2019-04-11T19:42:44.179Z,62054.11
2019-04-11T19:45:10.535Z,62055.78
2019-04-11T19:47:36.789Z,62047.55
2019-04-11T19:50:26.723Z,62053.96
2019-04-11T19:52:52.803Z,62056.38
2019-04-11T19:55:38.785Z,62049.65
2019-04-11T19:58:05.063Z,62045.87
2019-04-11T20:00:31.321Z,62038.24
2019-04-11T20:02:57.617Z,62038.50
2019-04-11T20:05:23.895Z,62030.87
2019-04-11T20:07:50.167Z,62026.76
2019-04-11T20:10:16.428Z,62025.00
2019-04-11T20:12:42.727Z,62016.50
2019-04-11T20:15:08.979Z,62013.46
2019-04-11T20:17:44.065Z,62006.57
2019-04-11T20:23:10.523Z,61995.91
2019-04-11T20:25:33.919Z,61995.83
2019-04-11T20:28:00.380Z,61993.68
2019-04-11T20:30:26.710Z,61983.89
2019-04-11T20:32:52.974Z,61984.49
2019-04-11T20:35:28.443Z,61977.96
2019-04-11T20:37:47.422Z,61974.58
2019-04-11T20:40:17.437Z,61968.98
2019-04-11T20:42:41.847Z,61970.45
2019-04-11T20:45:08.201Z,61962.51
2019-04-11T20:47:34.466Z,61954.76
2019-04-11T20:50:07.371Z,61948.61
2019-04-11T20:52:28.912Z,61948.54
2019-04-11T20:54:55.207Z,61938.55
2019-04-11T20:57:26.008Z,61937.47
2019-04-11T21:02:35.977Z,61929.59
2019-04-11T21:05:02.261Z,61918.93
2019-04-11T21:07:31.621Z,61917.86
2019-04-11T21:12:37.272Z,61910.91
2019-04-11T21:17:40.053Z,61904.63
2019-04-11T21:20:06.632Z,61900.31
2019-04-11T21:22:32.883Z,61893.11
2019-04-11T21:24:59.639Z,61892.08
2019-04-11T21:27:28.899Z,61813.87
2019-04-11T21:29:59.777Z,61873.98
2019-04-11T21:32:23.721Z,61881.70
2019-04-11T21:34:49.997Z,61870.80
2019-04-11T21:37:16.255Z,61866.08
2019-04-11T21:39:42.530Z,61867.76
2019-04-11T21:42:09.478Z,61863.58
2019-04-11T21:44:36.952Z,61855.10
2019-04-11T21:47:23.091Z,61860.61
2019-04-11T21:50:11.697Z,61855.23
2019-04-11T21:52:37.965Z,61850.86
2019-04-11T21:58:05.031Z,61840.97
2019-04-11T22:01:12.601Z,61834.84
2019-04-11T22:03:38.984Z,61836.17
2019-04-11T22:06:05.234Z,61828.23
2019-04-11T22:08:32.005Z,61830.43
2019-04-11T22:10:59.644Z,61820.82
2019-04-11T22:13:25.950Z,61819.41
2019-04-11T22:16:33.541Z,61818.19
2019-04-11T22:21:53.881Z,61810.10
2019-04-11T22:24:20.128Z,61809.47
2019-04-11T22:26:50.156Z,61800.60
2019-04-11T22:29:34.317Z,61806.11
2019-04-11T22:32:00.771Z,61797.23
2019-04-11T22:34:46.807Z,61782.57
2019-04-11T22:37:13.085Z,61781.16
2019-04-11T22:39:39.336Z,61777.93
2019-04-11T22:42:05.649Z,61778.17
2019-04-11T22:44:31.858Z,61769.90
2019-04-11T22:46:58.132Z,61762.84
2019-04-11T22:49:44.164Z,61752.94
2019-04-11T22:52:30.164Z,61752.12
2019-04-11T22:54:56.597Z,61748.16
2019-04-11T22:57:22.855Z,61740.95
2019-04-11T23:00:08.865Z,61735.04
2019-04-11T23:02:54.890Z,61729.50
2019-04-11T23:05:21.195Z,61729.03
2019-04-11T23:07:48.462Z,61724.32
2019-04-11T23:10:17.069Z,61713.11
2019-04-11T23:17:51.217Z,61707.23
2019-04-11T23:20:17.838Z,61700.59
2019-04-11T23:22:44.124Z,61709.78
2019-04-11T23:25:10.476Z,61702.40
2019-04-11T23:27:36.722Z,61693.24
2019-04-11T23:33:01.343Z,61675.62
2019-04-11T23:35:27.630Z,61666.83
2019-04-11T23:37:53.890Z,61665.45
2019-04-11T23:40:21.008Z,61658.27
2019-04-11T23:45:51.205Z,61647.18
2019-04-11T23:48:17.313Z,61637.97
2019-04-11T23:50:43.680Z,61640.38
2019-04-11T23:53:09.925Z,61634.94
2019-04-11T23:55:36.190Z,61635.83
2019-04-11T23:58:02.532Z,61638.16
